sensor_id;sensor_type;location;lat;lon;timestamp;P1;durP1;ratioP1;P2;durP2;ratioP2
19846;SDS011;10084;50.518;8.588;2023-03-17T00:01:49;3.73;;;2.27;;
19846;SDS011;10084;50.518;8.588;2023-03-17T00:04:18;4.03;;;3.07;;
19846;SDS011;10084;50.518;8.588;2023-03-17T00:06:44;3.03;;;2.73;;
19846;SDS011;10084;50.518;8.588;2023-03-17T00:09:12;2.67;;;2.03;;
19846;SDS011;10084;50.518;8.588;2023-03-17T00:11:39;2.63;;;2.37;;
19846;SDS011;10084;50.518;8.588;2023-03-17T00:14:05;4.03;;;2.70;;
19846;SDS011;10084;50.518;8.588;2023-03-17T00:16:33;3.23;;;2.70;;
19846;SDS011;10084;50.518;8.588;2023-03-17T00:19:01;2.87;;;2.67;;
19846;SDS011;10084;50.518;8.588;2023-03-17T00:21:29;2.90;;;2.50;;
19846;SDS011;10084;50.518;8.588;2023-03-17T00:23:56;2.63;;;2.43;;
19846;SDS011;10084;50.518;8.588;2023-03-17T00:26:22;2.63;;;2.43;;
19846;SDS011;10084;50.518;8.588;2023-03-17T00:28:49;4.83;;;2.83;;
19846;SDS011;10084;50.518;8.588;2023-03-17T00:31:24;2.30;;;2.10;;
19846;SDS011;10084;50.518;8.588;2023-03-17T00:33:53;2.70;;;2.50;;
19846;SDS011;10084;50.518;8.588;2023-03-17T00:36:21;3.00;;;2.70;;
19846;SDS011;10084;50.518;8.588;2023-03-17T00:38:48;6.10;;;2.40;;
19846;SDS011;10084;50.518;8.588;2023-03-17T00:41:15;3.40;;;2.80;;
19846;SDS011;10084;50.518;8.588;2023-03-17T00:43:42;2.37;;;2.17;;
19846;SDS011;10084;50.518;8.588;2023-03-17T00:46:13;2.43;;;2.23;;
19846;SDS011;10084;50.518;8.588;2023-03-17T00:48:41;3.67;;;2.37;;
19846;SDS011;10084;50.518;8.588;2023-03-17T00:51:09;3.83;;;2.63;;
19846;SDS011;10084;50.518;8.588;2023-03-17T00:53:35;2.57;;;2.37;;
19846;SDS011;10084;50.518;8.588;2023-03-17T00:56:02;2.50;;;2.30;;
19846;SDS011;10084;50.518;8.588;2023-03-17T00:58:29;4.73;;;2.70;;
19846;SDS011;10084;50.518;8.588;2023-03-17T01:00:56;2.83;;;2.17;;
19846;SDS011;10084;50.518;8.588;2023-03-17T01:03:24;2.57;;;2.37;;
19846;SDS011;10084;50.518;8.588;2023-03-17T01:05:51;2.30;;;2.10;;
19846;SDS011;10084;50.518;8.588;2023-03-17T01:08:18;2.57;;;2.37;;
19846;SDS011;10084;50.518;8.588;2023-03-17T01:10:44;2.80;;;2.60;;
19846;SDS011;10084;50.518;8.588;2023-03-17T01:13:11;2.80;;;2.60;;
19846;SDS011;10084;50.518;8.588;2023-03-17T01:15:43;4.17;;;2.03;;
19846;SDS011;10084;50.518;8.588;2023-03-17T01:18:10;2.90;;;2.70;;
19846;SDS011;10084;50.518;8.588;2023-03-17T01:20:37;3.03;;;2.77;;
19846;SDS011;10084;50.518;8.588;2023-03-17T01:23:04;2.10;;;1.90;;
19846;SDS011;10084;50.518;8.588;2023-03-17T01:25:30;2.43;;;2.23;;
19846;SDS011;10084;50.518;8.588;2023-03-17T01:27:57;2.57;;;2.37;;
19846;SDS011;10084;50.518;8.588;2023-03-17T01:32:51;4.43;;;2.97;;
19846;SDS011;10084;50.518;8.588;2023-03-17T01:35:18;8.07;;;3.03;;
19846;SDS011;10084;50.518;8.588;2023-03-17T01:37:45;3.10;;;2.60;;
19846;SDS011;10084;50.518;8.588;2023-03-17T01:40:16;3.27;;;3.00;;
19846;SDS011;10084;50.518;8.588;2023-03-17T01:42:43;2.40;;;2.20;;
19846;SDS011;10084;50.518;8.588;2023-03-17T01:47:55;3.77;;;2.83;;
19846;SDS011;10084;50.518;8.588;2023-03-17T01:50:22;2.60;;;2.40;;
19846;SDS011;10084;50.518;8.588;2023-03-17T01:52:48;2.53;;;2.33;;
19846;SDS011;10084;50.518;8.588;2023-03-17T01:55:15;2.30;;;2.10;;
19846;SDS011;10084;50.518;8.588;2023-03-17T01:57:46;3.00;;;2.80;;
19846;SDS011;10084;50.518;8.588;2023-03-17T02:00:21;3.60;;;3.30;;
19846;SDS011;10084;50.518;8.588;2023-03-17T02:02:51;2.63;;;2.40;;
19846;SDS011;10084;50.518;8.588;2023-03-17T02:05:25;5.23;;;2.77;;
19846;SDS011;10084;50.518;8.588;2023-03-17T02:07:52;3.57;;;2.80;;
19846;SDS011;10084;50.518;8.588;2023-03-17T02:10:24;4.57;;;2.87;;
19846;SDS011;10084;50.518;8.588;2023-03-17T02:12:55;6.20;;;2.77;;
19846;SDS011;10084;50.518;8.588;2023-03-17T02:15:23;3.40;;;3.10;;
19846;SDS011;10084;50.518;8.588;2023-03-17T02:17:49;2.77;;;2.50;;
19846;SDS011;10084;50.518;8.588;2023-03-17T02:22:43;3.17;;;2.87;;
19846;SDS011;10084;50.518;8.588;2023-03-17T02:25:12;2.90;;;2.70;;
19846;SDS011;10084;50.518;8.588;2023-03-17T02:27:42;2.70;;;2.50;;
19846;SDS011;10084;50.518;8.588;2023-03-17T02:30:11;3.13;;;2.70;;
19846;SDS011;10084;50.518;8.588;2023-03-17T02:32:39;2.53;;;2.33;;
19846;SDS011;10084;50.518;8.588;2023-03-17T02:35:06;3.77;;;2.93;;
19846;SDS011;10084;50.518;8.588;2023-03-17T02:37:35;4.70;;;3.13;;
19846;SDS011;10084;50.518;8.588;2023-03-17T02:40:02;3.43;;;3.13;;
19846;SDS011;10084;50.518;8.588;2023-03-17T02:42:30;3.17;;;2.87;;
19846;SDS011;10084;50.518;8.588;2023-03-17T02:44:57;2.77;;;2.57;;
19846;SDS011;10084;50.518;8.588;2023-03-17T02:47:23;2.30;;;2.20;;
19846;SDS011;10084;50.518;8.588;2023-03-17T02:49:49;2.83;;;2.50;;
19846;SDS011;10084;50.518;8.588;2023-03-17T02:52:15;3.00;;;2.80;;
19846;SDS011;10084;50.518;8.588;2023-03-17T02:54:42;2.53;;;2.33;;
19846;SDS011;10084;50.518;8.588;2023-03-17T02:57:08;3.70;;;2.50;;
19846;SDS011;10084;50.518;8.588;2023-03-17T02:59:34;8.40;;;3.27;;
19846;SDS011;10084;50.518;8.588;2023-03-17T03:02:00;3.27;;;2.97;;
19846;SDS011;10084;50.518;8.588;2023-03-17T03:04:27;5.07;;;2.90;;
19846;SDS011;10084;50.518;8.588;2023-03-17T03:06:53;2.53;;;2.33;;
19846;SDS011;10084;50.518;8.588;2023-03-17T03:09:19;2.97;;;2.77;;
19846;SDS011;10084;50.518;8.588;2023-03-17T03:11:45;3.30;;;2.63;;
19846;SDS011;10084;50.518;8.588;2023-03-17T03:14:12;3.17;;;2.30;;
19846;SDS011;10084;50.518;8.588;2023-03-17T03:16:38;3.47;;;2.80;;
19846;SDS011;10084;50.518;8.588;2023-03-17T03:19:04;2.53;;;2.33;;
19846;SDS011;10084;50.518;8.588;2023-03-17T03:21:31;3.03;;;2.50;;
19846;SDS011;10084;50.518;8.588;2023-03-17T03:23:58;2.57;;;2.37;;
19846;SDS011;10084;50.518;8.588;2023-03-17T03:26:24;3.00;;;2.47;;
19846;SDS011;10084;50.518;8.588;2023-03-17T03:28:50;2.80;;;2.50;;
19846;SDS011;10084;50.518;8.588;2023-03-17T03:31:16;4.63;;;2.73;;
19846;SDS011;10084;50.518;8.588;2023-03-17T03:33:42;2.80;;;2.60;;
19846;SDS011;10084;50.518;8.588;2023-03-17T03:36:09;3.17;;;2.43;;
19846;SDS011;10084;50.518;8.588;2023-03-17T03:38:35;2.60;;;2.40;;
19846;SDS011;10084;50.518;8.588;2023-03-17T03:41:01;3.07;;;2.87;;
19846;SDS011;10084;50.518;8.588;2023-03-17T03:43:27;2.37;;;2.17;;
19846;SDS011;10084;50.518;8.588;2023-03-17T03:45:54;2.73;;;2.50;;
19846;SDS011;10084;50.518;8.588;2023-03-17T03:48:20;3.07;;;2.77;;
19846;SDS011;10084;50.518;8.588;2023-03-17T03:50:46;3.37;;;3.00;;
19846;SDS011;10084;50.518;8.588;2023-03-17T03:53:13;3.03;;;2.77;;
19846;SDS011;10084;50.518;8.588;2023-03-17T03:55:39;2.13;;;1.93;;
19846;SDS011;10084;50.518;8.588;2023-03-17T03:58:05;3.43;;;2.57;;
19846;SDS011;10084;50.518;8.588;2023-03-17T04:00:32;5.43;;;3.03;;
19846;SDS011;10084;50.518;8.588;2023-03-17T04:02:59;3.93;;;3.70;;
19846;SDS011;10084;50.518;8.588;2023-03-17T04:05:25;2.63;;;2.43;;
19846;SDS011;10084;50.518;8.588;2023-03-17T04:07:51;6.10;;;2.57;;
19846;SDS011;10084;50.518;8.588;2023-03-17T04:10:17;5.30;;;2.73;;
19846;SDS011;10084;50.518;8.588;2023-03-17T04:12:44;3.10;;;2.43;;
19846;SDS011;10084;50.518;8.588;2023-03-17T04:15:12;3.00;;;2.57;;
19846;SDS011;10084;50.518;8.588;2023-03-17T04:17:39;4.57;;;2.73;;
19846;SDS011;10084;50.518;8.588;2023-03-17T04:20:05;3.07;;;2.77;;
19846;SDS011;10084;50.518;8.588;2023-03-17T04:22:32;2.30;;;2.10;;
19846;SDS011;10084;50.518;8.588;2023-03-17T04:24:58;3.00;;;2.80;;
19846;SDS011;10084;50.518;8.588;2023-03-17T04:27:24;3.27;;;2.97;;
19846;SDS011;10084;50.518;8.588;2023-03-17T04:29:51;2.77;;;2.57;;
19846;SDS011;10084;50.518;8.588;2023-03-17T04:32:17;3.00;;;2.70;;
19846;SDS011;10084;50.518;8.588;2023-03-17T04:34:43;2.73;;;2.53;;
19846;SDS011;10084;50.518;8.588;2023-03-17T04:37:09;2.50;;;2.30;;
19846;SDS011;10084;50.518;8.588;2023-03-17T04:39:36;4.43;;;2.30;;
19846;SDS011;10084;50.518;8.588;2023-03-17T04:42:03;3.07;;;2.87;;
19846;SDS011;10084;50.518;8.588;2023-03-17T04:44:30;3.40;;;3.10;;
19846;SDS011;10084;50.518;8.588;2023-03-17T04:46:56;2.73;;;2.27;;
19846;SDS011;10084;50.518;8.588;2023-03-17T04:49:22;4.33;;;2.17;;
19846;SDS011;10084;50.518;8.588;2023-03-17T04:51:48;2.33;;;2.20;;
19846;SDS011;10084;50.518;8.588;2023-03-17T04:54:14;4.23;;;3.20;;
19846;SDS011;10084;50.518;8.588;2023-03-17T04:56:41;2.63;;;2.43;;
19846;SDS011;10084;50.518;8.588;2023-03-17T04:59:07;2.93;;;2.63;;
19846;SDS011;10084;50.518;8.588;2023-03-17T05:01:33;2.60;;;2.40;;
19846;SDS011;10084;50.518;8.588;2023-03-17T05:03:59;3.33;;;2.17;;
19846;SDS011;10084;50.518;8.588;2023-03-17T05:06:26;2.00;;;1.90;;
19846;SDS011;10084;50.518;8.588;2023-03-17T05:08:52;2.13;;;2.03;;
19846;SDS011;10084;50.518;8.588;2023-03-17T05:11:18;2.23;;;2.03;;
19846;SDS011;10084;50.518;8.588;2023-03-17T05:13:44;2.80;;;2.43;;
19846;SDS011;10084;50.518;8.588;2023-03-17T05:16:10;2.00;;;1.90;;
19846;SDS011;10084;50.518;8.588;2023-03-17T05:18:37;2.80;;;2.57;;
19846;SDS011;10084;50.518;8.588;2023-03-17T05:21:04;2.30;;;2.03;;
19846;SDS011;10084;50.518;8.588;2023-03-17T05:23:32;3.80;;;2.30;;
19846;SDS011;10084;50.518;8.588;2023-03-17T05:25:58;3.80;;;2.50;;
19846;SDS011;10084;50.518;8.588;2023-03-17T05:28:24;2.77;;;2.50;;
19846;SDS011;10084;50.518;8.588;2023-03-17T05:30:51;2.73;;;2.53;;
19846;SDS011;10084;50.518;8.588;2023-03-17T05:33:18;3.20;;;2.90;;
19846;SDS011;10084;50.518;8.588;2023-03-17T05:35:44;4.00;;;2.80;;
19846;SDS011;10084;50.518;8.588;2023-03-17T05:38:12;3.03;;;2.37;;
19846;SDS011;10084;50.518;8.588;2023-03-17T05:40:38;2.60;;;2.40;;
19846;SDS011;10084;50.518;8.588;2023-03-17T05:43:05;2.37;;;2.17;;
19846;SDS011;10084;50.518;8.588;2023-03-17T05:45:31;6.93;;;3.27;;
19846;SDS011;10084;50.518;8.588;2023-03-17T05:47:57;2.83;;;2.37;;
19846;SDS011;10084;50.518;8.588;2023-03-17T05:50:24;2.80;;;2.60;;
19846;SDS011;10084;50.518;8.588;2023-03-17T05:52:54;5.87;;;2.73;;
19846;SDS011;10084;50.518;8.588;2023-03-17T05:55:20;9.87;;;2.57;;
19846;SDS011;10084;50.518;8.588;2023-03-17T05:57:46;3.27;;;2.43;;
19846;SDS011;10084;50.518;8.588;2023-03-17T06:00:12;2.37;;;2.17;;
19846;SDS011;10084;50.518;8.588;2023-03-17T06:02:40;2.67;;;2.47;;
19846;SDS011;10084;50.518;8.588;2023-03-17T06:05:07;2.90;;;2.50;;
19846;SDS011;10084;50.518;8.588;2023-03-17T06:07:33;4.37;;;1.93;;
19846;SDS011;10084;50.518;8.588;2023-03-17T06:10:00;2.50;;;2.30;;
19846;SDS011;10084;50.518;8.588;2023-03-17T06:12:27;2.20;;;2.00;;
19846;SDS011;10084;50.518;8.588;2023-03-17T06:14:53;3.63;;;2.37;;
19846;SDS011;10084;50.518;8.588;2023-03-17T06:17:19;1.93;;;1.83;;
19846;SDS011;10084;50.518;8.588;2023-03-17T06:19:45;3.23;;;2.93;;
19846;SDS011;10084;50.518;8.588;2023-03-17T06:22:12;3.50;;;2.83;;
19846;SDS011;10084;50.518;8.588;2023-03-17T06:24:38;4.70;;;3.70;;
19846;SDS011;10084;50.518;8.588;2023-03-17T06:27:04;4.20;;;3.80;;
19846;SDS011;10084;50.518;8.588;2023-03-17T06:29:30;4.27;;;3.20;;
19846;SDS011;10084;50.518;8.588;2023-03-17T06:31:56;5.70;;;3.40;;
19846;SDS011;10084;50.518;8.588;2023-03-17T06:34:22;3.60;;;3.20;;
19846;SDS011;10084;50.518;8.588;2023-03-17T06:36:48;4.70;;;3.80;;
19846;SDS011;10084;50.518;8.588;2023-03-17T06:39:15;3.47;;;3.17;;
19846;SDS011;10084;50.518;8.588;2023-03-17T06:41:45;8.93;;;3.83;;
19846;SDS011;10084;50.518;8.588;2023-03-17T06:44:11;4.10;;;3.70;;
19846;SDS011;10084;50.518;8.588;2023-03-17T06:46:37;5.40;;;3.73;;
19846;SDS011;10084;50.518;8.588;2023-03-17T06:49:03;5.90;;;4.97;;
19846;SDS011;10084;50.518;8.588;2023-03-17T06:51:29;8.03;;;7.07;;
19846;SDS011;10084;50.518;8.588;2023-03-17T06:53:56;9.00;;;8.10;;
19846;SDS011;10084;50.518;8.588;2023-03-17T06:56:22;4.67;;;4.27;;
19846;SDS011;10084;50.518;8.588;2023-03-17T06:58:49;6.47;;;4.07;;
19846;SDS011;10084;50.518;8.588;2023-03-17T07:01:15;4.57;;;4.17;;
19846;SDS011;10084;50.518;8.588;2023-03-17T07:04:10;3.50;;;3.20;;
19846;SDS011;10084;50.518;8.588;2023-03-17T07:06:36;2.47;;;2.30;;
19846;SDS011;10084;50.518;8.588;2023-03-17T07:09:04;3.63;;;2.30;;
19846;SDS011;10084;50.518;8.588;2023-03-17T07:11:31;3.37;;;2.27;;
19846;SDS011;10084;50.518;8.588;2023-03-17T07:13:58;4.50;;;2.53;;
19846;SDS011;10084;50.518;8.588;2023-03-17T07:16:26;2.50;;;2.30;;
19846;SDS011;10084;50.518;8.588;2023-03-17T07:18:53;4.27;;;2.17;;
19846;SDS011;10084;50.518;8.588;2023-03-17T07:21:20;2.97;;;2.20;;
19846;SDS011;10084;50.518;8.588;2023-03-17T07:23:46;1.67;;;1.57;;
19846;SDS011;10084;50.518;8.588;2023-03-17T07:26:11;2.47;;;2.27;;
19846;SDS011;10084;50.518;8.588;2023-03-17T07:28:38;2.47;;;2.27;;
19846;SDS011;10084;50.518;8.588;2023-03-17T07:31:04;2.77;;;2.50;;
19846;SDS011;10084;50.518;8.588;2023-03-17T07:33:32;2.83;;;2.63;;
19846;SDS011;10084;50.518;8.588;2023-03-17T07:35:58;3.87;;;2.90;;
19846;SDS011;10084;50.518;8.588;2023-03-17T07:38:25;2.40;;;2.20;;
19846;SDS011;10084;50.518;8.588;2023-03-17T07:40:51;2.63;;;2.43;;
19846;SDS011;10084;50.518;8.588;2023-03-17T07:43:17;2.70;;;2.50;;
19846;SDS011;10084;50.518;8.588;2023-03-17T07:45:43;2.60;;;2.40;;
19846;SDS011;10084;50.518;8.588;2023-03-17T07:48:09;5.27;;;2.17;;
19846;SDS011;10084;50.518;8.588;2023-03-17T07:50:35;2.47;;;2.13;;
19846;SDS011;10084;50.518;8.588;2023-03-17T07:53:01;2.43;;;2.17;;
19846;SDS011;10084;50.518;8.588;2023-03-17T07:55:28;2.60;;;2.27;;
19846;SDS011;10084;50.518;8.588;2023-03-17T07:57:56;5.07;;;2.77;;
19846;SDS011;10084;50.518;8.588;2023-03-17T08:00:22;3.60;;;2.27;;
19846;SDS011;10084;50.518;8.588;2023-03-17T08:02:49;2.27;;;2.07;;
19846;SDS011;10084;50.518;8.588;2023-03-17T08:05:15;2.47;;;2.27;;
19846;SDS011;10084;50.518;8.588;2023-03-17T08:07:43;2.37;;;2.17;;
19846;SDS011;10084;50.518;8.588;2023-03-17T08:10:10;1.90;;;1.80;;
19846;SDS011;10084;50.518;8.588;2023-03-17T08:12:39;5.90;;;1.90;;
19846;SDS011;10084;50.518;8.588;2023-03-17T08:15:06;4.30;;;2.30;;
19846;SDS011;10084;50.518;8.588;2023-03-17T08:17:33;2.40;;;2.20;;
19846;SDS011;10084;50.518;8.588;2023-03-17T08:20:00;2.60;;;2.50;;
19846;SDS011;10084;50.518;8.588;2023-03-17T08:22:27;2.27;;;2.07;;
19846;SDS011;10084;50.518;8.588;2023-03-17T08:24:53;2.60;;;2.40;;
19846;SDS011;10084;50.518;8.588;2023-03-17T08:27:19;2.63;;;2.43;;
19846;SDS011;10084;50.518;8.588;2023-03-17T08:29:45;2.30;;;2.10;;
19846;SDS011;10084;50.518;8.588;2023-03-17T08:32:12;2.13;;;2.00;;
19846;SDS011;10084;50.518;8.588;2023-03-17T08:34:38;2.23;;;2.10;;
19846;SDS011;10084;50.518;8.588;2023-03-17T08:37:05;5.43;;;2.00;;
19846;SDS011;10084;50.518;8.588;2023-03-17T08:39:32;2.43;;;2.03;;
19846;SDS011;10084;50.518;8.588;2023-03-17T08:41:59;2.70;;;2.50;;
19846;SDS011;10084;50.518;8.588;2023-03-17T08:44:26;4.40;;;2.57;;
19846;SDS011;10084;50.518;8.588;2023-03-17T08:46:52;2.67;;;2.47;;
19846;SDS011;10084;50.518;8.588;2023-03-17T08:49:18;2.57;;;2.37;;
19846;SDS011;10084;50.518;8.588;2023-03-17T08:51:45;3.73;;;2.20;;
19846;SDS011;10084;50.518;8.588;2023-03-17T08:54:11;2.20;;;2.00;;
19846;SDS011;10084;50.518;8.588;2023-03-17T08:56:38;3.03;;;2.37;;
19846;SDS011;10084;50.518;8.588;2023-03-17T08:59:05;2.03;;;1.93;;
19846;SDS011;10084;50.518;8.588;2023-03-17T09:01:31;2.13;;;2.03;;
19846;SDS011;10084;50.518;8.588;2023-03-17T09:03:58;2.40;;;2.20;;
19846;SDS011;10084;50.518;8.588;2023-03-17T09:06:25;2.43;;;2.33;;
19846;SDS011;10084;50.518;8.588;2023-03-17T09:08:51;4.03;;;2.17;;
19846;SDS011;10084;50.518;8.588;2023-03-17T09:11:22;2.53;;;2.33;;
19846;SDS011;10084;50.518;8.588;2023-03-17T09:13:48;2.17;;;2.00;;
19846;SDS011;10084;50.518;8.588;2023-03-17T09:16:14;2.53;;;2.33;;
19846;SDS011;10084;50.518;8.588;2023-03-17T09:18:42;2.33;;;2.13;;
19846;SDS011;10084;50.518;8.588;2023-03-17T09:21:09;2.40;;;2.30;;
19846;SDS011;10084;50.518;8.588;2023-03-17T09:23:36;2.20;;;2.00;;
19846;SDS011;10084;50.518;8.588;2023-03-17T09:26:02;2.63;;;2.43;;
19846;SDS011;10084;50.518;8.588;2023-03-17T09:28:28;2.73;;;2.53;;
19846;SDS011;10084;50.518;8.588;2023-03-17T09:30:58;3.57;;;2.60;;
19846;SDS011;10084;50.518;8.588;2023-03-17T09:33:24;2.83;;;2.53;;
19846;SDS011;10084;50.518;8.588;2023-03-17T09:35:51;2.73;;;2.53;;
19846;SDS011;10084;50.518;8.588;2023-03-17T09:38:18;2.63;;;2.43;;
19846;SDS011;10084;50.518;8.588;2023-03-17T09:40:48;2.67;;;2.47;;
19846;SDS011;10084;50.518;8.588;2023-03-17T09:43:21;2.50;;;2.30;;
19846;SDS011;10084;50.518;8.588;2023-03-17T09:45:49;2.87;;;2.67;;
19846;SDS011;10084;50.518;8.588;2023-03-17T09:53:14;2.40;;;2.30;;
19846;SDS011;10084;50.518;8.588;2023-03-17T09:55:41;2.63;;;2.43;;
19846;SDS011;10084;50.518;8.588;2023-03-17T09:58:09;2.67;;;2.37;;
19846;SDS011;10084;50.518;8.588;2023-03-17T10:00:36;2.67;;;2.47;;
19846;SDS011;10084;50.518;8.588;2023-03-17T10:03:04;6.47;;;2.93;;
19846;SDS011;10084;50.518;8.588;2023-03-17T10:05:35;2.40;;;2.03;;
19846;SDS011;10084;50.518;8.588;2023-03-17T10:08:06;3.10;;;2.90;;
19846;SDS011;10084;50.518;8.588;2023-03-17T10:10:43;3.43;;;3.13;;
19846;SDS011;10084;50.518;8.588;2023-03-17T10:13:14;3.33;;;2.50;;
19846;SDS011;10084;50.518;8.588;2023-03-17T10:15:48;4.33;;;2.70;;
19846;SDS011;10084;50.518;8.588;2023-03-17T10:18:16;3.13;;;2.93;;
19846;SDS011;10084;50.518;8.588;2023-03-17T10:20:45;3.17;;;2.90;;
19846;SDS011;10084;50.518;8.588;2023-03-17T10:23:14;3.17;;;2.87;;
19846;SDS011;10084;50.518;8.588;2023-03-17T10:25:42;3.20;;;3.00;;
19846;SDS011;10084;50.518;8.588;2023-03-17T10:30:40;3.97;;;3.03;;
19846;SDS011;10084;50.518;8.588;2023-03-17T10:33:08;2.93;;;2.73;;
19846;SDS011;10084;50.518;8.588;2023-03-17T10:35:34;2.67;;;2.43;;
19846;SDS011;10084;50.518;8.588;2023-03-17T10:38:07;3.30;;;3.00;;
19846;SDS011;10084;50.518;8.588;2023-03-17T10:40:39;7.40;;;3.00;;
19846;SDS011;10084;50.518;8.588;2023-03-17T10:43:06;2.93;;;2.73;;
19846;SDS011;10084;50.518;8.588;2023-03-17T10:45:38;3.27;;;2.53;;
19846;SDS011;10084;50.518;8.588;2023-03-17T10:48:08;4.60;;;3.23;;
19846;SDS011;10084;50.518;8.588;2023-03-17T10:50:35;3.90;;;2.73;;
19846;SDS011;10084;50.518;8.588;2023-03-17T10:55:30;5.63;;;2.50;;
19846;SDS011;10084;50.518;8.588;2023-03-17T10:58:01;8.67;;;3.10;;
19846;SDS011;10084;50.518;8.588;2023-03-17T11:00:28;3.27;;;2.97;;
19846;SDS011;10084;50.518;8.588;2023-03-17T11:02:57;3.30;;;3.00;;
19846;SDS011;10084;50.518;8.588;2023-03-17T11:05:25;3.10;;;2.80;;
19846;SDS011;10084;50.518;8.588;2023-03-17T11:07:57;2.33;;;2.23;;
19846;SDS011;10084;50.518;8.588;2023-03-17T11:10:24;2.43;;;2.23;;
19846;SDS011;10084;50.518;8.588;2023-03-17T11:12:54;3.53;;;3.23;;
19846;SDS011;10084;50.518;8.588;2023-03-17T11:15:23;5.17;;;3.47;;
19846;SDS011;10084;50.518;8.588;2023-03-17T11:17:54;3.30;;;3.00;;
19846;SDS011;10084;50.518;8.588;2023-03-17T11:23:05;2.60;;;2.40;;
19846;SDS011;10084;50.518;8.588;2023-03-17T11:25:35;2.70;;;2.50;;
19846;SDS011;10084;50.518;8.588;2023-03-17T11:30:33;2.97;;;2.77;;
19846;SDS011;10084;50.518;8.588;2023-03-17T11:35:48;2.43;;;2.23;;
19846;SDS011;10084;50.518;8.588;2023-03-17T11:38:21;3.20;;;3.00;;
19846;SDS011;10084;50.518;8.588;2023-03-17T11:43:39;2.50;;;2.30;;
19846;SDS011;10084;50.518;8.588;2023-03-17T11:46:15;2.97;;;2.17;;
19846;SDS011;10084;50.518;8.588;2023-03-17T11:48:47;3.20;;;3.00;;
19846;SDS011;10084;50.518;8.588;2023-03-17T11:51:21;3.00;;;2.80;;
19846;SDS011;10084;50.518;8.588;2023-03-17T11:56:47;4.13;;;2.80;;
19846;SDS011;10084;50.518;8.588;2023-03-17T12:02:02;2.60;;;2.40;;
19846;SDS011;10084;50.518;8.588;2023-03-17T12:04:35;3.83;;;2.83;;
19846;SDS011;10084;50.518;8.588;2023-03-17T12:07:04;5.47;;;2.00;;
19846;SDS011;10084;50.518;8.588;2023-03-17T12:12:05;6.70;;;3.03;;
19846;SDS011;10084;50.518;8.588;2023-03-17T12:17:05;2.70;;;2.50;;
19846;SDS011;10084;50.518;8.588;2023-03-17T12:19:41;4.00;;;2.67;;
19846;SDS011;10084;50.518;8.588;2023-03-17T12:22:15;3.80;;;2.33;;
19846;SDS011;10084;50.518;8.588;2023-03-17T12:27:14;2.63;;;2.43;;
19846;SDS011;10084;50.518;8.588;2023-03-17T12:29:54;2.77;;;2.57;;
19846;SDS011;10084;50.518;8.588;2023-03-17T12:32:28;2.80;;;2.60;;
19846;SDS011;10084;50.518;8.588;2023-03-17T12:34:58;2.90;;;2.23;;
19846;SDS011;10084;50.518;8.588;2023-03-17T12:37:29;3.27;;;2.63;;
19846;SDS011;10084;50.518;8.588;2023-03-17T12:39:59;2.20;;;2.00;;
19846;SDS011;10084;50.518;8.588;2023-03-17T12:42:35;2.90;;;2.70;;
19846;SDS011;10084;50.518;8.588;2023-03-17T12:47:54;2.53;;;2.33;;
19846;SDS011;10084;50.518;8.588;2023-03-17T12:53:12;2.50;;;2.30;;
19846;SDS011;10084;50.518;8.588;2023-03-17T12:55:44;3.40;;;2.23;;
19846;SDS011;10084;50.518;8.588;2023-03-17T13:01:05;23.13;;;2.67;;
19846;SDS011;10084;50.518;8.588;2023-03-17T13:03:33;2.63;;;2.43;;
19846;SDS011;10084;50.518;8.588;2023-03-17T13:06:04;2.83;;;2.63;;
19846;SDS011;10084;50.518;8.588;2023-03-17T13:08:36;2.40;;;2.20;;
19846;SDS011;10084;50.518;8.588;2023-03-17T13:16:27;2.10;;;1.90;;
19846;SDS011;10084;50.518;8.588;2023-03-17T13:19:06;2.00;;;1.80;;
19846;SDS011;10084;50.518;8.588;2023-03-17T13:21:37;2.80;;;2.30;;
19846;SDS011;10084;50.518;8.588;2023-03-17T13:26:58;2.87;;;2.63;;
19846;SDS011;10084;50.518;8.588;2023-03-17T13:31:52;1.70;;;1.60;;
19846;SDS011;10084;50.518;8.588;2023-03-17T13:34:44;5.40;;;2.00;;
19846;SDS011;10084;50.518;8.588;2023-03-17T13:42:13;1.80;;;1.70;;
19846;SDS011;10084;50.518;8.588;2023-03-17T13:47:33;8.47;;;1.90;;
19846;SDS011;10084;50.518;8.588;2023-03-17T13:52:49;2.17;;;1.87;;
19846;SDS011;10084;50.518;8.588;2023-03-17T14:00:35;2.30;;;1.93;;
19846;SDS011;10084;50.518;8.588;2023-03-17T14:03:07;2.43;;;2.10;;
19846;SDS011;10084;50.518;8.588;2023-03-17T14:05:38;1.93;;;1.83;;
19846;SDS011;10084;50.518;8.588;2023-03-17T14:10:55;3.47;;;1.53;;
19846;SDS011;10084;50.518;8.588;2023-03-17T14:13:26;3.70;;;1.50;;
19846;SDS011;10084;50.518;8.588;2023-03-17T14:15:59;4.10;;;1.40;;
19846;SDS011;10084;50.518;8.588;2023-03-17T14:18:31;2.73;;;2.20;;
19846;SDS011;10084;50.518;8.588;2023-03-17T14:21:02;5.93;;;2.30;;
19846;SDS011;10084;50.518;8.588;2023-03-17T14:23:35;2.27;;;1.90;;
19846;SDS011;10084;50.518;8.588;2023-03-17T14:26:04;4.90;;;2.00;;
19846;SDS011;10084;50.518;8.588;2023-03-17T14:28:38;3.47;;;1.93;;
19846;SDS011;10084;50.518;8.588;2023-03-17T14:31:06;2.33;;;1.93;;
19846;SDS011;10084;50.518;8.588;2023-03-17T14:33:39;1.50;;;1.40;;
19846;SDS011;10084;50.518;8.588;2023-03-17T14:36:08;8.93;;;1.63;;
19846;SDS011;10084;50.518;8.588;2023-03-17T14:38:36;2.37;;;1.50;;
19846;SDS011;10084;50.518;8.588;2023-03-17T14:43:43;1.80;;;1.50;;
19846;SDS011;10084;50.518;8.588;2023-03-17T14:46:13;2.47;;;1.90;;
19846;SDS011;10084;50.518;8.588;2023-03-17T14:48:42;2.70;;;1.63;;
19846;SDS011;10084;50.518;8.588;2023-03-17T14:51:27;1.07;;;0.97;;
19846;SDS011;10084;50.518;8.588;2023-03-17T14:54:01;2.53;;;1.67;;
19846;SDS011;10084;50.518;8.588;2023-03-17T14:56:34;1.90;;;1.67;;
19846;SDS011;10084;50.518;8.588;2023-03-17T14:59:03;1.60;;;1.30;;
19846;SDS011;10084;50.518;8.588;2023-03-17T15:01:37;2.53;;;1.43;;
19846;SDS011;10084;50.518;8.588;2023-03-17T15:04:11;1.50;;;1.30;;
19846;SDS011;10084;50.518;8.588;2023-03-17T15:06:49;3.33;;;1.40;;
19846;SDS011;10084;50.518;8.588;2023-03-17T15:09:24;1.37;;;1.00;;
19846;SDS011;10084;50.518;8.588;2023-03-17T15:11:53;1.33;;;1.17;;
19846;SDS011;10084;50.518;8.588;2023-03-17T15:14:32;1.20;;;1.10;;
19846;SDS011;10084;50.518;8.588;2023-03-17T15:17:02;2.50;;;1.17;;
19846;SDS011;10084;50.518;8.588;2023-03-17T15:22:03;2.03;;;1.90;;
19846;SDS011;10084;50.518;8.588;2023-03-17T15:24:35;1.70;;;1.50;;
19846;SDS011;10084;50.518;8.588;2023-03-17T15:27:04;2.60;;;1.20;;
19846;SDS011;10084;50.518;8.588;2023-03-17T15:29:30;1.40;;;1.30;;
19846;SDS011;10084;50.518;8.588;2023-03-17T15:31:59;1.60;;;1.40;;
19846;SDS011;10084;50.518;8.588;2023-03-17T15:34:25;1.43;;;1.33;;
19846;SDS011;10084;50.518;8.588;2023-03-17T15:36:51;3.67;;;1.60;;
19846;SDS011;10084;50.518;8.588;2023-03-17T15:39:17;2.20;;;1.77;;
19846;SDS011;10084;50.518;8.588;2023-03-17T15:41:43;1.57;;;1.13;;
19846;SDS011;10084;50.518;8.588;2023-03-17T15:44:09;1.83;;;1.37;;
19846;SDS011;10084;50.518;8.588;2023-03-17T15:46:35;1.27;;;1.13;;
19846;SDS011;10084;50.518;8.588;2023-03-17T15:49:04;5.10;;;1.90;;
19846;SDS011;10084;50.518;8.588;2023-03-17T15:51:30;1.43;;;1.33;;
19846;SDS011;10084;50.518;8.588;2023-03-17T15:53:56;2.17;;;1.40;;
19846;SDS011;10084;50.518;8.588;2023-03-17T15:56:22;1.40;;;1.30;;
19846;SDS011;10084;50.518;8.588;2023-03-17T15:58:49;1.83;;;1.73;;
19846;SDS011;10084;50.518;8.588;2023-03-17T16:01:16;4.53;;;1.30;;
19846;SDS011;10084;50.518;8.588;2023-03-17T16:03:45;1.80;;;1.30;;
19846;SDS011;10084;50.518;8.588;2023-03-17T16:06:18;3.77;;;1.33;;
19846;SDS011;10084;50.518;8.588;2023-03-17T16:08:46;1.83;;;1.73;;
19846;SDS011;10084;50.518;8.588;2023-03-17T16:11:17;4.50;;;1.43;;
19846;SDS011;10084;50.518;8.588;2023-03-17T16:13:45;2.30;;;1.50;;
19846;SDS011;10084;50.518;8.588;2023-03-17T16:16:16;2.23;;;1.63;;
19846;SDS011;10084;50.518;8.588;2023-03-17T16:18:45;3.80;;;1.43;;